sensor_id;sensor_type;location;lat;lon;timestamp;P1;durP1;ratioP1;P2;durP2;ratioP2
64651;SDS011;51062;45.120;37.660;2023-07-20T00:01:28;112.05;;;103.20;;
64651;SDS011;51062;45.120;37.660;2023-07-20T00:03:54;112.07;;;103.72;;
64651;SDS011;51062;45.120;37.660;2023-07-20T00:06:20;101.40;;;93.80;;
64651;SDS011;51062;45.120;37.660;2023-07-20T00:08:47;101.88;;;94.47;;
64651;SDS011;51062;45.120;37.660;2023-07-20T00:11:14;109.53;;;101.30;;
64651;SDS011;51062;45.120;37.660;2023-07-20T00:13:40;100.30;;;92.70;;
64651;SDS011;51062;45.120;37.660;2023-07-20T00:16:06;98.75;;;91.25;;
64651;SDS011;51062;45.120;37.660;2023-07-20T00:18:32;93.97;;;87.07;;
64651;SDS011;51062;45.120;37.660;2023-07-20T00:20:58;94.80;;;88.00;;
64651;SDS011;51062;45.120;37.660;2023-07-20T00:23:27;93.90;;;87.38;;
64651;SDS011;51062;45.120;37.660;2023-07-20T00:25:53;94.95;;;88.22;;
64651;SDS011;51062;45.120;37.660;2023-07-20T00:28:20;84.10;;;78.28;;
64651;SDS011;51062;45.120;37.660;2023-07-20T00:30:48;91.10;;;84.63;;
64651;SDS011;51062;45.120;37.660;2023-07-20T00:33:16;82.15;;;76.18;;
64651;SDS011;51062;45.120;37.660;2023-07-20T00:35:42;84.40;;;78.63;;
64651;SDS011;51062;45.120;37.660;2023-07-20T00:38:09;84.90;;;79.07;;
64651;SDS011;51062;45.120;37.660;2023-07-20T00:40:39;95.30;;;88.68;;
64651;SDS011;51062;45.120;37.660;2023-07-20T00:43:07;75.53;;;70.45;;
64651;SDS011;51062;45.120;37.660;2023-07-20T00:45:34;85.35;;;79.75;;
64651;SDS011;51062;45.120;37.660;2023-07-20T00:48:02;74.00;;;68.85;;
64651;SDS011;51062;45.120;37.660;2023-07-20T00:50:30;57.25;;;53.33;;
64651;SDS011;51062;45.120;37.660;2023-07-20T00:52:57;72.50;;;67.55;;
64651;SDS011;51062;45.120;37.660;2023-07-20T00:55:24;59.80;;;55.60;;
64651;SDS011;51062;45.120;37.660;2023-07-20T00:57:52;70.25;;;65.38;;
64651;SDS011;51062;45.120;37.660;2023-07-20T01:00:18;84.43;;;78.88;;
64651;SDS011;51062;45.120;37.660;2023-07-20T01:02:45;100.28;;;93.68;;
64651;SDS011;51062;45.120;37.660;2023-07-20T01:05:12;86.68;;;80.82;;
64651;SDS011;51062;45.120;37.660;2023-07-20T01:15:13;69.53;;;64.78;;
64651;SDS011;51062;45.120;37.660;2023-07-20T01:17:39;81.68;;;76.30;;
64651;SDS011;51062;45.120;37.660;2023-07-20T01:20:09;78.68;;;72.43;;
64651;SDS011;51062;45.120;37.660;2023-07-20T01:25:11;95.57;;;89.13;;
64651;SDS011;51062;45.120;37.660;2023-07-20T01:30:45;85.82;;;80.18;;
64651;SDS011;51062;45.120;37.660;2023-07-20T01:33:17;95.18;;;88.82;;
64651;SDS011;51062;45.120;37.660;2023-07-20T01:35:46;109.25;;;102.22;;
64651;SDS011;51062;45.120;37.660;2023-07-20T01:38:16;100.35;;;93.35;;
64651;SDS011;51062;45.120;37.660;2023-07-20T01:40:44;92.75;;;86.57;;
64651;SDS011;51062;45.120;37.660;2023-07-20T01:43:10;90.13;;;84.20;;
64651;SDS011;51062;45.120;37.660;2023-07-20T01:45:37;95.75;;;89.05;;
64651;SDS011;51062;45.120;37.660;2023-07-20T01:48:03;97.72;;;91.40;;
64651;SDS011;51062;45.120;37.660;2023-07-20T01:50:30;93.00;;;87.00;;
64651;SDS011;51062;45.120;37.660;2023-07-20T01:52:58;92.25;;;85.70;;
64651;SDS011;51062;45.120;37.660;2023-07-20T01:55:24;97.38;;;91.05;;
64651;SDS011;51062;45.120;37.660;2023-07-20T01:57:50;98.30;;;91.95;;
64651;SDS011;51062;45.120;37.660;2023-07-20T02:00:16;90.57;;;84.53;;
64651;SDS011;51062;45.120;37.660;2023-07-20T02:02:46;96.38;;;89.78;;
64651;SDS011;51062;45.120;37.660;2023-07-20T02:05:12;88.97;;;82.47;;
64651;SDS011;51062;45.120;37.660;2023-07-20T02:07:38;95.68;;;89.50;;
64651;SDS011;51062;45.120;37.660;2023-07-20T02:10:05;82.72;;;77.13;;
64651;SDS011;51062;45.120;37.660;2023-07-20T02:12:31;107.15;;;99.22;;
64651;SDS011;51062;45.120;37.660;2023-07-20T02:14:57;83.30;;;77.75;;
64651;SDS011;51062;45.120;37.660;2023-07-20T02:17:23;83.75;;;78.28;;
64651;SDS011;51062;45.120;37.660;2023-07-20T02:19:52;85.53;;;79.88;;
64651;SDS011;51062;45.120;37.660;2023-07-20T02:22:20;77.78;;;72.70;;
64651;SDS011;51062;45.120;37.660;2023-07-20T02:24:47;85.15;;;79.57;;
64651;SDS011;51062;45.120;37.660;2023-07-20T02:27:13;87.45;;;81.75;;
64651;SDS011;51062;45.120;37.660;2023-07-20T02:29:40;91.30;;;85.15;;
64651;SDS011;51062;45.120;37.660;2023-07-20T02:32:10;82.07;;;76.60;;
64651;SDS011;51062;45.120;37.660;2023-07-20T02:34:36;88.72;;;82.93;;
64651;SDS011;51062;45.120;37.660;2023-07-20T02:37:02;93.00;;;86.95;;
64651;SDS011;51062;45.120;37.660;2023-07-20T02:39:29;95.85;;;89.45;;
64651;SDS011;51062;45.120;37.660;2023-07-20T02:41:55;93.30;;;87.05;;
64651;SDS011;51062;45.120;37.660;2023-07-20T02:44:22;93.97;;;87.82;;
64651;SDS011;51062;45.120;37.660;2023-07-20T02:46:48;95.20;;;85.97;;
64651;SDS011;51062;45.120;37.660;2023-07-20T02:49:17;86.55;;;80.85;;
64651;SDS011;51062;45.120;37.660;2023-07-20T02:51:44;86.72;;;80.63;;
64651;SDS011;51062;45.120;37.660;2023-07-20T02:54:10;84.28;;;78.65;;
64651;SDS011;51062;45.120;37.660;2023-07-20T02:56:36;85.82;;;80.13;;
64651;SDS011;51062;45.120;37.660;2023-07-20T02:59:02;74.20;;;69.13;;
64651;SDS011;51062;45.120;37.660;2023-07-20T03:01:28;82.00;;;76.57;;
64651;SDS011;51062;45.120;37.660;2023-07-20T03:03:57;77.68;;;71.57;;
64651;SDS011;51062;45.120;37.660;2023-07-20T03:06:23;76.22;;;71.03;;
64651;SDS011;51062;45.120;37.660;2023-07-20T03:08:49;80.30;;;74.97;;
64651;SDS011;51062;45.120;37.660;2023-07-20T03:11:18;79.50;;;74.15;;
64651;SDS011;51062;45.120;37.660;2023-07-20T03:13:46;89.03;;;83.10;;
64651;SDS011;51062;45.120;37.660;2023-07-20T03:16:15;92.88;;;86.57;;
64651;SDS011;51062;45.120;37.660;2023-07-20T03:18:43;94.30;;;87.20;;
64651;SDS011;51062;45.120;37.660;2023-07-20T03:21:10;94.28;;;88.10;;
64651;SDS011;51062;45.120;37.660;2023-07-20T03:23:37;99.07;;;92.30;;
64651;SDS011;51062;45.120;37.660;2023-07-20T03:26:07;100.95;;;94.25;;
64651;SDS011;51062;45.120;37.660;2023-07-20T03:28:36;99.47;;;92.85;;
64651;SDS011;51062;45.120;37.660;2023-07-20T03:31:03;105.90;;;98.95;;
64651;SDS011;51062;45.120;37.660;2023-07-20T03:33:33;109.32;;;102.15;;
64651;SDS011;51062;45.120;37.660;2023-07-20T03:36:00;112.63;;;105.15;;
64651;SDS011;51062;45.120;37.660;2023-07-20T03:38:26;107.05;;;99.88;;
64651;SDS011;51062;45.120;37.660;2023-07-20T03:43:24;106.90;;;99.75;;
64651;SDS011;51062;45.120;37.660;2023-07-20T03:45:51;105.57;;;98.57;;
64651;SDS011;51062;45.120;37.660;2023-07-20T03:48:18;109.22;;;102.00;;
64651;SDS011;51062;45.120;37.660;2023-07-20T03:50:45;98.38;;;91.75;;
64651;SDS011;51062;45.120;37.660;2023-07-20T03:53:12;106.20;;;98.93;;
64651;SDS011;51062;45.120;37.660;2023-07-20T03:55:40;107.30;;;100.20;;
64651;SDS011;51062;45.120;37.660;2023-07-20T03:58:07;99.95;;;92.90;;
64651;SDS011;51062;45.120;37.660;2023-07-20T04:00:34;93.97;;;87.68;;
64651;SDS011;51062;45.120;37.660;2023-07-20T04:03:00;103.03;;;95.78;;
64651;SDS011;51062;45.120;37.660;2023-07-20T04:05:26;105.30;;;98.30;;
64651;SDS011;51062;45.120;37.660;2023-07-20T04:07:52;107.63;;;100.35;;
64651;SDS011;51062;45.120;37.660;2023-07-20T04:10:18;109.25;;;102.05;;
64651;SDS011;51062;45.120;37.660;2023-07-20T04:12:45;107.32;;;99.97;;
64651;SDS011;51062;45.120;37.660;2023-07-20T04:15:14;106.03;;;98.75;;
64651;SDS011;51062;45.120;37.660;2023-07-20T04:17:40;99.47;;;92.35;;
64651;SDS011;51062;45.120;37.660;2023-07-20T04:20:09;101.03;;;94.13;;
64651;SDS011;51062;45.120;37.660;2023-07-20T04:22:35;97.72;;;90.50;;
64651;SDS011;51062;45.120;37.660;2023-07-20T04:25:03;93.97;;;87.60;;
64651;SDS011;51062;45.120;37.660;2023-07-20T04:27:29;93.35;;;86.97;;
64651;SDS011;51062;45.120;37.660;2023-07-20T04:29:58;86.03;;;79.95;;
64651;SDS011;51062;45.120;37.660;2023-07-20T04:32:25;90.90;;;84.70;;
64651;SDS011;51062;45.120;37.660;2023-07-20T04:34:51;89.97;;;83.75;;
64651;SDS011;51062;45.120;37.660;2023-07-20T04:37:18;85.35;;;78.90;;
64651;SDS011;51062;45.120;37.660;2023-07-20T04:39:46;83.53;;;77.78;;
64651;SDS011;51062;45.120;37.660;2023-07-20T04:42:12;81.88;;;75.63;;
64651;SDS011;51062;45.120;37.660;2023-07-20T04:44:39;82.57;;;76.78;;
64651;SDS011;51062;45.120;37.660;2023-07-20T04:47:07;74.30;;;68.63;;
64651;SDS011;51062;45.120;37.660;2023-07-20T04:49:36;78.65;;;73.18;;
64651;SDS011;51062;45.120;37.660;2023-07-20T04:52:03;78.63;;;73.13;;
64651;SDS011;51062;45.120;37.660;2023-07-20T04:54:30;71.45;;;66.25;;
64651;SDS011;51062;45.120;37.660;2023-07-20T04:56:56;77.22;;;71.78;;
64651;SDS011;51062;45.120;37.660;2023-07-20T04:59:23;78.15;;;72.32;;
64651;SDS011;51062;45.120;37.660;2023-07-20T05:01:49;76.20;;;70.82;;
64651;SDS011;51062;45.120;37.660;2023-07-20T05:04:16;73.68;;;68.47;;
64651;SDS011;51062;45.120;37.660;2023-07-20T05:06:42;72.10;;;64.28;;
64651;SDS011;51062;45.120;37.660;2023-07-20T05:09:09;81.80;;;74.90;;
64651;SDS011;51062;45.120;37.660;2023-07-20T05:11:35;76.70;;;68.90;;
64651;SDS011;51062;45.120;37.660;2023-07-20T05:14:01;80.50;;;74.65;;
64651;SDS011;51062;45.120;37.660;2023-07-20T05:16:28;80.10;;;74.63;;
64651;SDS011;51062;45.120;37.660;2023-07-20T05:19:00;77.50;;;72.07;;
64651;SDS011;51062;45.120;37.660;2023-07-20T05:21:26;76.75;;;71.18;;
64651;SDS011;51062;45.120;37.660;2023-07-20T05:23:52;75.03;;;69.43;;
64651;SDS011;51062;45.120;37.660;2023-07-20T05:26:18;80.22;;;74.43;;
64651;SDS011;51062;45.120;37.660;2023-07-20T05:28:44;76.88;;;71.40;;
64651;SDS011;51062;45.120;37.660;2023-07-20T05:31:11;86.32;;;80.05;;
64651;SDS011;51062;45.120;37.660;2023-07-20T05:33:37;71.80;;;66.47;;
64651;SDS011;51062;45.120;37.660;2023-07-20T05:36:03;80.68;;;75.13;;
64651;SDS011;51062;45.120;37.660;2023-07-20T05:38:29;74.38;;;69.13;;
64651;SDS011;51062;45.120;37.660;2023-07-20T05:40:58;72.82;;;67.75;;
64651;SDS011;51062;45.120;37.660;2023-07-20T05:43:26;77.50;;;71.80;;
64651;SDS011;51062;45.120;37.660;2023-07-20T05:45:52;84.32;;;78.53;;
64651;SDS011;51062;45.120;37.660;2023-07-20T05:48:18;80.65;;;75.30;;
64651;SDS011;51062;45.120;37.660;2023-07-20T05:50:45;76.97;;;71.72;;
64651;SDS011;51062;45.120;37.660;2023-07-20T05:53:11;59.67;;;55.47;;
64651;SDS011;51062;45.120;37.660;2023-07-20T05:55:37;86.10;;;80.43;;
64651;SDS011;51062;45.120;37.660;2023-07-20T05:58:04;54.90;;;51.20;;
64651;SDS011;51062;45.120;37.660;2023-07-20T06:00:30;71.50;;;66.53;;
64651;SDS011;51062;45.120;37.660;2023-07-20T06:02:57;75.10;;;70.07;;
64651;SDS011;51062;45.120;37.660;2023-07-20T06:05:23;78.70;;;73.43;;
64651;SDS011;51062;45.120;37.660;2023-07-20T06:07:50;78.18;;;72.70;;
64651;SDS011;51062;45.120;37.660;2023-07-20T06:10:16;53.28;;;49.47;;
64651;SDS011;51062;45.120;37.660;2023-07-20T06:12:42;55.35;;;51.35;;
64651;SDS011;51062;45.120;37.660;2023-07-20T06:15:24;44.78;;;41.55;;
64651;SDS011;51062;45.120;37.660;2023-07-20T06:18:02;56.53;;;52.50;;
64651;SDS011;51062;45.120;37.660;2023-07-20T06:20:29;53.92;;;50.15;;
64651;SDS011;51062;45.120;37.660;2023-07-20T06:22:55;50.60;;;46.60;;
64651;SDS011;51062;45.120;37.660;2023-07-20T06:25:22;54.65;;;50.85;;
64651;SDS011;51062;45.120;37.660;2023-07-20T06:27:48;80.00;;;67.97;;
64651;SDS011;51062;45.120;37.660;2023-07-20T06:30:19;61.78;;;57.53;;
64651;SDS011;51062;45.120;37.660;2023-07-20T06:32:45;52.30;;;48.60;;
64651;SDS011;51062;45.120;37.660;2023-07-20T06:35:11;48.55;;;44.28;;
64651;SDS011;51062;45.120;37.660;2023-07-20T06:37:38;63.03;;;58.83;;
64651;SDS011;51062;45.120;37.660;2023-07-20T06:40:04;63.45;;;59.22;;
64651;SDS011;51062;45.120;37.660;2023-07-20T06:42:30;42.78;;;39.78;;
64651;SDS011;51062;45.120;37.660;2023-07-20T06:44:57;43.65;;;40.47;;
64651;SDS011;51062;45.120;37.660;2023-07-20T06:47:23;54.67;;;51.03;;
64651;SDS011;51062;45.120;37.660;2023-07-20T06:49:49;39.28;;;36.65;;
64651;SDS011;51062;45.120;37.660;2023-07-20T06:52:15;43.95;;;40.72;;
64651;SDS011;51062;45.120;37.660;2023-07-20T06:54:42;40.05;;;37.35;;
64651;SDS011;51062;45.120;37.660;2023-07-20T06:57:08;41.70;;;38.28;;
64651;SDS011;51062;45.120;37.660;2023-07-20T06:59:34;43.40;;;40.25;;
64651;SDS011;51062;45.120;37.660;2023-07-20T07:02:00;44.17;;;41.15;;
64651;SDS011;51062;45.120;37.660;2023-07-20T07:04:26;46.70;;;43.42;;
64651;SDS011;51062;45.120;37.660;2023-07-20T07:06:52;43.97;;;40.97;;
64651;SDS011;51062;45.120;37.660;2023-07-20T07:09:18;47.42;;;43.22;;
64651;SDS011;51062;45.120;37.660;2023-07-20T07:11:44;48.95;;;45.38;;
64651;SDS011;51062;45.120;37.660;2023-07-20T07:14:11;45.10;;;41.28;;
64651;SDS011;51062;45.120;37.660;2023-07-20T07:16:37;48.15;;;44.70;;
64651;SDS011;51062;45.120;37.660;2023-07-20T07:19:03;43.40;;;40.40;;
64651;SDS011;51062;45.120;37.660;2023-07-20T07:21:31;56.80;;;52.90;;
64651;SDS011;51062;45.120;37.660;2023-07-20T07:23:59;59.20;;;55.05;;
64651;SDS011;51062;45.120;37.660;2023-07-20T07:26:25;68.43;;;63.42;;
64651;SDS011;51062;45.120;37.660;2023-07-20T07:28:51;57.97;;;53.03;;
64651;SDS011;51062;45.120;37.660;2023-07-20T07:31:17;86.05;;;59.30;;
64651;SDS011;51062;45.120;37.660;2023-07-20T07:33:44;58.28;;;53.75;;
64651;SDS011;51062;45.120;37.660;2023-07-20T07:36:10;62.08;;;57.63;;
64651;SDS011;51062;45.120;37.660;2023-07-20T07:38:36;66.35;;;61.63;;
64651;SDS011;51062;45.120;37.660;2023-07-20T07:41:02;56.28;;;52.35;;
64651;SDS011;51062;45.120;37.660;2023-07-20T07:43:28;66.53;;;62.03;;
64651;SDS011;51062;45.120;37.660;2023-07-20T07:45:54;62.90;;;58.17;;
64651;SDS011;51062;45.120;37.660;2023-07-20T07:48:21;60.38;;;56.28;;
64651;SDS011;51062;45.120;37.660;2023-07-20T07:50:47;64.72;;;60.33;;
64651;SDS011;51062;45.120;37.660;2023-07-20T07:53:15;64.38;;;59.97;;
64651;SDS011;51062;45.120;37.660;2023-07-20T07:55:41;60.70;;;56.50;;
64651;SDS011;51062;45.120;37.660;2023-07-20T07:58:07;67.95;;;63.25;;
64651;SDS011;51062;45.120;37.660;2023-07-20T08:00:34;67.43;;;62.78;;
64651;SDS011;51062;45.120;37.660;2023-07-20T08:03:00;65.93;;;61.42;;
64651;SDS011;51062;45.120;37.660;2023-07-20T08:05:26;69.45;;;64.43;;
64651;SDS011;51062;45.120;37.660;2023-07-20T08:07:52;61.88;;;57.65;;
64651;SDS011;51062;45.120;37.660;2023-07-20T08:10:18;62.30;;;57.97;;
64651;SDS011;51062;45.120;37.660;2023-07-20T08:12:44;68.75;;;63.90;;
64651;SDS011;51062;45.120;37.660;2023-07-20T08:15:10;65.57;;;61.28;;
64651;SDS011;51062;45.120;37.660;2023-07-20T08:17:38;63.45;;;58.60;;
64651;SDS011;51062;45.120;37.660;2023-07-20T08:20:04;66.75;;;61.95;;
64651;SDS011;51062;45.120;37.660;2023-07-20T08:22:31;68.30;;;63.70;;
64651;SDS011;51062;45.120;37.660;2023-07-20T08:24:57;63.67;;;58.83;;
64651;SDS011;51062;45.120;37.660;2023-07-20T08:27:25;66.18;;;61.50;;
64651;SDS011;51062;45.120;37.660;2023-07-20T08:29:51;66.78;;;62.28;;
64651;SDS011;51062;45.120;37.660;2023-07-20T08:32:17;70.78;;;65.95;;
64651;SDS011;51062;45.120;37.660;2023-07-20T08:34:43;70.32;;;65.63;;
64651;SDS011;51062;45.120;37.660;2023-07-20T08:37:09;67.53;;;63.10;;
64651;SDS011;51062;45.120;37.660;2023-07-20T08:39:35;69.53;;;65.03;;
64651;SDS011;51062;45.120;37.660;2023-07-20T08:42:01;72.28;;;67.20;;
64651;SDS011;51062;45.120;37.660;2023-07-20T08:44:32;66.22;;;61.65;;
64651;SDS011;51062;45.120;37.660;2023-07-20T08:47:00;75.63;;;70.22;;
64651;SDS011;51062;45.120;37.660;2023-07-20T08:49:33;67.43;;;63.00;;
64651;SDS011;51062;45.120;37.660;2023-07-20T08:52:00;67.88;;;63.38;;
64651;SDS011;51062;45.120;37.660;2023-07-20T08:54:27;63.42;;;59.28;;
64651;SDS011;51062;45.120;37.660;2023-07-20T08:56:58;69.00;;;64.10;;
64651;SDS011;51062;45.120;37.660;2023-07-20T08:59:28;69.95;;;65.20;;
64651;SDS011;51062;45.120;37.660;2023-07-20T09:01:58;75.55;;;70.25;;
64651;SDS011;51062;45.120;37.660;2023-07-20T09:04:26;71.38;;;66.20;;
64651;SDS011;51062;45.120;37.660;2023-07-20T09:06:52;48.88;;;44.63;;
64651;SDS011;51062;45.120;37.660;2023-07-20T09:09:18;41.38;;;38.58;;
64651;SDS011;51062;45.120;37.660;2023-07-20T09:11:48;71.93;;;67.10;;
64651;SDS011;51062;45.120;37.660;2023-07-20T09:14:14;61.53;;;57.40;;
64651;SDS011;51062;45.120;37.660;2023-07-20T09:19:20;60.67;;;56.08;;
64651;SDS011;51062;45.120;37.660;2023-07-20T09:21:47;65.35;;;60.42;;
64651;SDS011;51062;45.120;37.660;2023-07-20T09:24:14;69.40;;;64.80;;
64651;SDS011;51062;45.120;37.660;2023-07-20T09:26:41;79.78;;;73.18;;
64651;SDS011;51062;45.120;37.660;2023-07-20T09:29:08;60.90;;;56.55;;
64651;SDS011;51062;45.120;37.660;2023-07-20T09:31:35;73.97;;;68.90;;
64651;SDS011;51062;45.120;37.660;2023-07-20T09:34:01;76.97;;;71.97;;
64651;SDS011;51062;45.120;37.660;2023-07-20T09:36:29;64.95;;;60.55;;
64651;SDS011;51062;45.120;37.660;2023-07-20T09:38:55;79.65;;;73.97;;
64651;SDS011;51062;45.120;37.660;2023-07-20T09:41:21;65.90;;;61.53;;
64651;SDS011;51062;45.120;37.660;2023-07-20T09:43:47;67.35;;;63.03;;
64651;SDS011;51062;45.120;37.660;2023-07-20T09:46:17;65.75;;;61.45;;
64651;SDS011;51062;45.120;37.660;2023-07-20T09:48:54;70.25;;;65.63;;
64651;SDS011;51062;45.120;37.660;2023-07-20T09:51:21;73.53;;;68.68;;
64651;SDS011;51062;45.120;37.660;2023-07-20T09:53:49;69.68;;;65.07;;
64651;SDS011;51062;45.120;37.660;2023-07-20T09:56:18;75.72;;;69.50;;
64651;SDS011;51062;45.120;37.660;2023-07-20T09:58:47;67.75;;;63.30;;
64651;SDS011;51062;45.120;37.660;2023-07-20T10:01:14;76.45;;;71.10;;
64651;SDS011;51062;45.120;37.660;2023-07-20T10:03:46;77.68;;;65.47;;
64651;SDS011;51062;45.120;37.660;2023-07-20T10:06:17;72.75;;;67.85;;
64651;SDS011;51062;45.120;37.660;2023-07-20T10:08:48;75.55;;;70.55;;
64651;SDS011;51062;45.120;37.660;2023-07-20T10:11:17;77.43;;;72.35;;
64651;SDS011;51062;45.120;37.660;2023-07-20T10:13:47;70.53;;;65.78;;
64651;SDS011;51062;45.120;37.660;2023-07-20T10:16:26;72.68;;;67.75;;
64651;SDS011;51062;45.120;37.660;2023-07-20T10:18:59;70.22;;;65.65;;
64651;SDS011;51062;45.120;37.660;2023-07-20T10:21:44;71.95;;;66.38;;
64651;SDS011;51062;45.120;37.660;2023-07-20T10:24:14;69.75;;;65.15;;
64651;SDS011;51062;45.120;37.660;2023-07-20T10:26:41;45.80;;;42.53;;
64651;SDS011;51062;45.120;37.660;2023-07-20T10:29:08;74.47;;;69.38;;
64651;SDS011;51062;45.120;37.660;2023-07-20T10:31:35;45.63;;;42.42;;
64651;SDS011;51062;45.120;37.660;2023-07-20T10:34:02;58.58;;;54.25;;
64651;SDS011;51062;45.120;37.660;2023-07-20T10:36:30;74.30;;;69.25;;
64651;SDS011;51062;45.120;37.660;2023-07-20T10:38:56;78.18;;;72.50;;
64651;SDS011;51062;45.120;37.660;2023-07-20T10:44:02;78.80;;;72.95;;
64651;SDS011;51062;45.120;37.660;2023-07-20T10:49:08;74.55;;;69.43;;
64651;SDS011;51062;45.120;37.660;2023-07-20T10:51:55;69.32;;;64.68;;
64651;SDS011;51062;45.120;37.660;2023-07-20T10:56:49;36.45;;;33.85;;
64651;SDS011;51062;45.120;37.660;2023-07-20T11:01:57;70.63;;;65.85;;
64651;SDS011;51062;45.120;37.660;2023-07-20T11:04:39;70.68;;;65.53;;
64651;SDS011;51062;45.120;37.660;2023-07-20T11:07:06;62.80;;;58.63;;
64651;SDS011;51062;45.120;37.660;2023-07-20T11:09:36;49.92;;;46.35;;
64651;SDS011;51062;45.120;37.660;2023-07-20T11:14:43;68.18;;;63.67;;
64651;SDS011;51062;45.120;37.660;2023-07-20T11:17:20;73.05;;;68.10;;
64651;SDS011;51062;45.120;37.660;2023-07-20T11:19:48;80.57;;;74.95;;
64651;SDS011;51062;45.120;37.660;2023-07-20T11:22:18;62.45;;;58.08;;
64651;SDS011;51062;45.120;37.660;2023-07-20T11:24:46;77.32;;;71.95;;
64651;SDS011;51062;45.120;37.660;2023-07-20T11:27:14;36.58;;;33.88;;
64651;SDS011;51062;45.120;37.660;2023-07-20T11:29:41;68.72;;;64.30;;
64651;SDS011;51062;45.120;37.660;2023-07-20T11:32:07;68.80;;;64.20;;
64651;SDS011;51062;45.120;37.660;2023-07-20T11:34:34;74.35;;;68.78;;
64651;SDS011;51062;45.120;37.660;2023-07-20T11:37:01;68.30;;;63.78;;
64651;SDS011;51062;45.120;37.660;2023-07-20T11:39:29;70.20;;;65.53;;
64651;SDS011;51062;45.120;37.660;2023-07-20T11:41:55;77.38;;;60.65;;
64651;SDS011;51062;45.120;37.660;2023-07-20T11:44:28;71.13;;;66.20;;
64651;SDS011;51062;45.120;37.660;2023-07-20T11:47:10;29.17;;;27.08;;
64651;SDS011;51062;45.120;37.660;2023-07-20T11:52:10;94.63;;;69.35;;
64651;SDS011;51062;45.120;37.660;2023-07-20T11:54:39;74.78;;;69.65;;
64651;SDS011;51062;45.120;37.660;2023-07-20T11:57:06;36.78;;;34.15;;
64651;SDS011;51062;45.120;37.660;2023-07-20T11:59:32;37.72;;;35.05;;
64651;SDS011;51062;45.120;37.660;2023-07-20T12:02:02;68.68;;;64.18;;
64651;SDS011;51062;45.120;37.660;2023-07-20T12:04:29;74.07;;;69.22;;
64651;SDS011;51062;45.120;37.660;2023-07-20T12:06:57;75.35;;;70.30;;
64651;SDS011;51062;45.120;37.660;2023-07-20T12:09:23;69.95;;;65.07;;
64651;SDS011;51062;45.120;37.660;2023-07-20T12:11:49;69.97;;;65.38;;
64651;SDS011;51062;45.120;37.660;2023-07-20T12:14:16;72.22;;;67.50;;
64651;SDS011;51062;45.120;37.660;2023-07-20T12:16:42;32.67;;;30.45;;
64651;SDS011;51062;45.120;37.660;2023-07-20T12:19:10;79.25;;;73.80;;
64651;SDS011;51062;45.120;37.660;2023-07-20T12:21:38;62.38;;;58.17;;
64651;SDS011;51062;45.120;37.660;2023-07-20T12:24:06;73.68;;;68.78;;
64651;SDS011;51062;45.120;37.660;2023-07-20T12:26:34;70.95;;;66.25;;
64651;SDS011;51062;45.120;37.660;2023-07-20T12:29:01;68.75;;;64.28;;
64651;SDS011;51062;45.120;37.660;2023-07-20T12:31:29;30.58;;;28.00;;
64651;SDS011;51062;45.120;37.660;2023-07-20T12:33:56;33.33;;;31.00;;
64651;SDS011;51062;45.120;37.660;2023-07-20T12:36:24;31.55;;;29.25;;
64651;SDS011;51062;45.120;37.660;2023-07-20T12:38:50;42.75;;;39.75;;
64651;SDS011;51062;45.120;37.660;2023-07-20T12:41:16;70.05;;;65.32;;
64651;SDS011;51062;45.120;37.660;2023-07-20T12:43:45;75.13;;;69.95;;
64651;SDS011;51062;45.120;37.660;2023-07-20T12:46:12;71.57;;;66.88;;
64651;SDS011;51062;45.120;37.660;2023-07-20T12:48:39;74.15;;;69.18;;
64651;SDS011;51062;45.120;37.660;2023-07-20T12:51:08;73.97;;;68.93;;
64651;SDS011;51062;45.120;37.660;2023-07-20T12:53:35;72.32;;;67.30;;
64651;SDS011;51062;45.120;37.660;2023-07-20T12:56:01;74.82;;;69.85;;
64651;SDS011;51062;45.120;37.660;2023-07-20T12:58:27;81.18;;;75.65;;
64651;SDS011;51062;45.120;37.660;2023-07-20T13:00:53;73.28;;;68.45;;
64651;SDS011;51062;45.120;37.660;2023-07-20T13:03:20;72.10;;;67.38;;
64651;SDS011;51062;45.120;37.660;2023-07-20T13:05:46;28.45;;;26.02;;
64651;SDS011;51062;45.120;37.660;2023-07-20T13:08:13;72.45;;;67.57;;
64651;SDS011;51062;45.120;37.660;2023-07-20T13:10:39;71.88;;;66.93;;
64651;SDS011;51062;45.120;37.660;2023-07-20T13:13:05;49.90;;;46.25;;
64651;SDS011;51062;45.120;37.660;2023-07-20T13:15:32;75.95;;;70.68;;
64651;SDS011;51062;45.120;37.660;2023-07-20T13:18:06;74.77;;;68.83;;
64651;SDS011;51062;45.120;37.660;2023-07-20T13:20:32;33.30;;;30.85;;
64651;SDS011;51062;45.120;37.660;2023-07-20T13:22:58;27.75;;;25.70;;
64651;SDS011;51062;45.120;37.660;2023-07-20T13:25:24;77.00;;;71.78;;
64651;SDS011;51062;45.120;37.660;2023-07-20T13:27:50;73.40;;;68.57;;
64651;SDS011;51062;45.120;37.660;2023-07-20T13:30:17;69.10;;;64.43;;
64651;SDS011;51062;45.120;37.660;2023-07-20T13:32:43;70.85;;;65.65;;
64651;SDS011;51062;45.120;37.660;2023-07-20T13:35:13;82.28;;;67.88;;
64651;SDS011;51062;45.120;37.660;2023-07-20T13:37:40;72.47;;;67.20;;
64651;SDS011;51062;45.120;37.660;2023-07-20T13:40:07;75.50;;;70.32;;
64651;SDS011;51062;45.120;37.660;2023-07-20T13:42:39;74.30;;;69.45;;
64651;SDS011;51062;45.120;37.660;2023-07-20T13:45:06;76.60;;;71.25;;
64651;SDS011;51062;45.120;37.660;2023-07-20T13:47:32;71.88;;;67.00;;
64651;SDS011;51062;45.120;37.660;2023-07-20T13:49:58;77.75;;;72.13;;
64651;SDS011;51062;45.120;37.660;2023-07-20T13:52:24;30.35;;;28.27;;
64651;SDS011;51062;45.120;37.660;2023-07-20T13:54:51;37.47;;;34.55;;
64651;SDS011;51062;45.120;37.660;2023-07-20T13:57:17;70.28;;;65.43;;
64651;SDS011;51062;45.120;37.660;2023-07-20T13:59:43;69.10;;;64.50;;
64651;SDS011;51062;45.120;37.660;2023-07-20T14:02:10;67.50;;;62.90;;
64651;SDS011;51062;45.120;37.660;2023-07-20T14:04:36;71.70;;;66.85;;
64651;SDS011;51062;45.120;37.660;2023-07-20T14:07:02;68.13;;;63.63;;
64651;SDS011;51062;45.120;37.660;2023-07-20T14:09:28;67.03;;;62.63;;
64651;SDS011;51062;45.120;37.660;2023-07-20T14:11:55;71.18;;;65.47;;
64651;SDS011;51062;45.120;37.660;2023-07-20T14:14:20;67.78;;;63.42;;
64651;SDS011;51062;45.120;37.660;2023-07-20T14:16:47;34.25;;;31.83;;
64651;SDS011;51062;45.120;37.660;2023-07-20T14:19:13;75.00;;;69.78;;
64651;SDS011;51062;45.120;37.660;2023-07-20T14:21:39;66.43;;;62.10;;
64651;SDS011;51062;45.120;37.660;2023-07-20T14:24:05;75.55;;;70.43;;
64651;SDS011;51062;45.120;37.660;2023-07-20T14:26:31;69.90;;;64.60;;
64651;SDS011;51062;45.120;37.660;2023-07-20T14:28:57;92.22;;;68.05;;
64651;SDS011;51062;45.120;37.660;2023-07-20T14:31:23;68.22;;;62.75;;
64651;SDS011;51062;45.120;37.660;2023-07-20T14:33:49;25.40;;;23.10;;
64651;SDS011;51062;45.120;37.660;2023-07-20T14:36:16;27.90;;;25.65;;
64651;SDS011;51062;45.120;37.660;2023-07-20T14:38:42;63.25;;;59.00;;
64651;SDS011;51062;45.120;37.660;2023-07-20T14:41:08;27.48;;;24.83;;
64651;SDS011;51062;45.120;37.660;2023-07-20T14:43:34;26.00;;;24.25;;